Terminal Aerodrome Forecast
Issued by NWS

Home | Current Version | Previous Version | Text Only | Print | Product List | Glossary On
Versions: 1 2 3 4 5 6 7 8 9 10 11 12 13 14 15 16 17 18 19 20 21 22 23 24
000
FTAK31 PANC 021738
TAFAAQ
TAF
PAAQ 021738Z 0218/0318 14008KT P6SM -RA SCT025 OVC060
     FM022100 16012KT P6SM -RA SCT030 BKN060
     FM030300 15011KT P6SM -SHRA BKN030 OVC050
     FM030600 13006KT P6SM -SHRA BKN030 OVC050=

USA.gov is the U.S. government's official web portal to all federal, state and local government web resources and services.